KPSC/PSC METAR and TAF weather

Enter ICAO airport designator
Station Type Date Time Source
KPSC METAR 2021/09/16 21:53 UTC NOAA

KPSC 162153Z VRB03KT 10SM CLR 22/M01 A3011 RMK AO2 SLP194 T02171006


Station Type Date Time Source
KPSC Decoded METAR 2021/09/16 21:53 UTC NOAA

TRI-CITIES AIRPORT, WA, United States (KPSC) 46-16N 119-07W 121M
Sep 16, 2021 - 05:53 PM EDT / 2021.09.16 2153 UTC
Wind: Variable at 3 MPH (3 KT):0
Visibility: 10 mile(s):0
Sky conditions: clear
Temperature: 71.1 F (21.7 C)
Dew Point: 30.9 F (-0.6 C)
Relative Humidity: 22%
Pressure (altimeter): 30.11 in. Hg (1019 hPa)
ob: KPSC 162153Z VRB03KT 10SM CLR 22/M01 A3011 RMK AO2 SLP194 T02171006
cycle: 22

Station Type Date Time Source
KPSC TAF 2021/09/16 18:22 UTC NOAA

TAF KPSC 161720Z 1618/1718 34005KT P6SM SKC
FM170600 VRB03KT P6SM OVC250
FM171300 VRB03KT P6SM SCT100 BKN150

Example: see airport list